createdAt,value
2018-09-10T00:01:55.453Z,95648.37
2018-09-10T00:05:00.601Z,95649.94
2018-09-10T00:08:05.207Z,95648.13
2018-09-10T00:11:10.106Z,95645.66
2018-09-10T00:14:14.510Z,95642.52
2018-09-10T00:17:20.045Z,95645.73
2018-09-10T00:20:24.549Z,95641.06
2018-09-10T00:23:29.057Z,95643.78
2018-09-10T00:26:33.601Z,95645.31
2018-09-10T00:29:37.687Z,95641.92
2018-09-10T00:32:42.346Z,95642.23
2018-09-10T00:35:46.681Z,95631.08
2018-09-10T00:38:51.974Z,95628.89
2018-09-10T00:41:56.366Z,95630.61
2018-09-10T00:45:01.666Z,95625.48
2018-09-10T00:48:06.807Z,95628.38
2018-09-10T00:51:11.149Z,95626.93
2018-09-10T00:54:15.727Z,95631.00
2018-09-10T00:57:20.064Z,95633.12
2018-09-10T01:00:24.632Z,95633.66
2018-09-10T01:03:28.999Z,95625.56
2018-09-10T01:06:33.512Z,95630.34
2018-09-10T01:09:38.254Z,95620.08
2018-09-10T01:12:42.992Z,95620.23
2018-09-10T01:15:47.389Z,95617.42
2018-09-10T01:18:52.214Z,95614.17
2018-09-10T01:21:56.592Z,95618.55
2018-09-10T01:25:00.976Z,95625.72
2018-09-10T01:28:05.381Z,95621.20
2018-09-10T01:31:09.750Z,95616.82
2018-09-10T01:34:19.300Z,95620.25
2018-09-10T01:37:24.081Z,95623.95
2018-09-10T01:40:28.586Z,95630.36
2018-09-10T01:43:32.965Z,95634.05
2018-09-10T01:46:37.306Z,95633.71
2018-09-10T01:49:41.670Z,95634.91
2018-09-10T01:52:45.774Z,95631.63
2018-09-10T01:55:50.674Z,95623.17
2018-09-10T01:58:55.079Z,95624.55
2018-09-10T02:01:59.437Z,95626.63
2018-09-10T02:05:03.810Z,95622.95
2018-09-10T02:08:08.350Z,95622.04
2018-09-10T02:11:12.814Z,95620.23
2018-09-10T02:14:17.184Z,95606.39
2018-09-10T02:17:21.592Z,95609.42
2018-09-10T02:20:25.958Z,95607.62
2018-09-10T02:23:30.306Z,95610.52
2018-09-10T02:26:34.660Z,95607.21
2018-09-10T02:29:39.028Z,95601.60
2018-09-10T02:32:43.397Z,95603.75
2018-09-10T02:35:47.843Z,95607.51
2018-09-10T02:38:52.317Z,95607.76
2018-09-10T02:41:57.087Z,95609.94
2018-09-10T02:45:01.454Z,95613.46
2018-09-10T02:48:06.098Z,95615.95
2018-09-10T02:51:10.505Z,95615.95
2018-09-10T02:54:14.872Z,95614.92
2018-09-10T02:57:19.528Z,95616.68
2018-09-10T03:00:25.581Z,95617.81
2018-09-10T03:03:30.177Z,95622.31
2018-09-10T03:06:34.579Z,95616.69
2018-09-10T03:09:38.929Z,95613.25
2018-09-10T03:12:43.373Z,95605.41
2018-09-10T03:15:47.756Z,95603.53
2018-09-10T03:18:52.173Z,95594.78
2018-09-10T03:21:56.687Z,95596.20
2018-09-10T03:25:01.261Z,95596.03
2018-09-10T03:28:05.616Z,95595.41
2018-09-10T03:31:10.461Z,95591.88
2018-09-10T03:34:15.446Z,95588.86
2018-09-10T03:37:19.938Z,95589.09
2018-09-10T03:40:24.705Z,95588.25
2018-09-10T03:43:29.157Z,95595.28
2018-09-10T03:46:34.117Z,95594.97
2018-09-10T03:49:38.650Z,95587.89
2018-09-10T03:52:42.990Z,95589.35
2018-09-10T03:55:47.327Z,95588.55
2018-09-10T03:58:52.355Z,95591.73
2018-09-10T04:01:56.708Z,95595.09
2018-09-10T04:05:01.361Z,95601.73
2018-09-10T04:08:05.891Z,95603.18
2018-09-10T04:11:10.614Z,95607.88
2018-09-10T04:14:15.069Z,95611.97
2018-09-10T04:17:19.651Z,95606.72
2018-09-10T04:20:23.931Z,95612.17
2018-09-10T04:23:28.309Z,95620.23
2018-09-10T04:26:32.677Z,95629.08
2018-09-10T04:29:37.077Z,95627.98
2018-09-10T04:32:41.919Z,95636.02
2018-09-10T04:35:46.343Z,95641.11
2018-09-10T04:38:50.719Z,95645.87
2018-09-10T04:41:55.098Z,95650.40
2018-09-10T04:45:00.324Z,95652.82
2018-09-10T04:48:04.701Z,95652.13
2018-09-10T04:51:09.105Z,95659.55
2018-09-10T04:54:13.838Z,95666.34
2018-09-10T04:57:18.318Z,95664.78
2018-09-10T05:00:22.858Z,95669.17
2018-09-10T05:03:27.417Z,95675.96
2018-09-10T05:06:31.818Z,95677.77
2018-09-10T05:09:36.263Z,95680.97
2018-09-10T05:12:44.192Z,95685.02
2018-09-10T05:15:48.790Z,95686.89
2018-09-10T05:18:53.149Z,95688.64
2018-09-10T05:21:57.900Z,95690.27
2018-09-10T05:25:02.236Z,95696.92
2018-09-10T05:28:06.599Z,95699.10
2018-09-10T05:31:10.963Z,95700.27
2018-09-10T05:34:15.374Z,95704.49
2018-09-10T05:37:19.836Z,95697.30
2018-09-10T05:40:24.214Z,95695.80
2018-09-10T05:43:29.170Z,95702.03
2018-09-10T05:46:33.772Z,95705.39
2018-09-10T05:49:38.126Z,95705.47
2018-09-10T05:52:42.489Z,95705.05
2018-09-10T05:55:47.594Z,95702.91
2018-09-10T05:58:52.096Z,95707.02
2018-09-10T06:01:56.525Z,95702.27
2018-09-10T06:05:01.762Z,95705.54
2018-09-10T06:08:07.943Z,95713.38
2018-09-10T06:11:12.421Z,95711.40
2018-09-10T06:14:16.834Z,95708.78
2018-09-10T06:17:21.253Z,95722.34
2018-09-10T06:20:25.782Z,95720.28
2018-09-10T06:23:30.315Z,95726.05
2018-09-10T06:26:34.990Z,95731.22
2018-09-10T06:29:39.557Z,95739.03
2018-09-10T06:32:44.887Z,95741.19
2018-09-10T06:35:49.384Z,95726.85
2018-09-10T06:41:58.753Z,95722.86
2018-09-10T06:45:03.181Z,95729.22
2018-09-10T06:48:07.647Z,95730.81
2018-09-10T06:51:12.059Z,95736.09
2018-09-10T06:54:16.514Z,95739.71
2018-09-10T06:57:20.886Z,95740.78
2018-09-10T07:00:25.536Z,95743.73
2018-09-10T07:03:29.970Z,95739.11
2018-09-10T07:06:34.370Z,95735.55
2018-09-10T07:09:38.717Z,95735.53
2018-09-10T07:12:43.121Z,95735.25
2018-09-10T07:15:48.157Z,95731.11
2018-09-10T07:18:52.831Z,95728.51
2018-09-10T07:21:57.806Z,95735.94
2018-09-10T07:25:02.316Z,95734.91
2018-09-10T07:28:06.741Z,95733.59
2018-09-10T07:31:11.349Z,95728.33
2018-09-10T07:34:16.042Z,95721.19
2018-09-10T07:37:20.502Z,95732.34
2018-09-10T07:40:24.895Z,95738.66
2018-09-10T07:43:29.340Z,95736.92
2018-09-10T07:46:33.647Z,95734.09
2018-09-10T07:49:38.079Z,95727.13
2018-09-10T07:52:42.448Z,95733.60
2018-09-10T07:55:47.324Z,95730.08
2018-09-10T07:58:51.672Z,95743.19
2018-09-10T08:01:56.182Z,95752.60
2018-09-10T08:05:00.846Z,95758.58
2018-09-10T08:08:06.179Z,95753.52
2018-09-10T08:11:11.031Z,95758.25
2018-09-10T08:14:16.205Z,95761.75
2018-09-10T08:17:20.712Z,95765.69
2018-09-10T08:20:25.717Z,95767.22
2018-09-10T08:23:30.290Z,95756.67
2018-09-10T08:26:35.025Z,95760.81
2018-09-10T08:29:39.514Z,95771.26
2018-09-10T08:32:44.104Z,95769.43
2018-09-10T08:35:48.556Z,95771.87
2018-09-10T08:38:53.035Z,95775.67
2018-09-10T08:41:57.475Z,95775.77
2018-09-10T08:45:01.833Z,95776.92
2018-09-10T08:48:08.272Z,95772.60
2018-09-10T08:51:12.775Z,95779.62
2018-09-10T08:54:18.193Z,95779.42
2018-09-10T08:57:22.721Z,95770.33
2018-09-10T09:00:27.832Z,95770.73
2018-09-10T09:03:32.411Z,95762.95
2018-09-10T09:06:36.885Z,95761.00
2018-09-10T09:09:41.338Z,95765.70
2018-09-10T09:12:46.075Z,95761.23
2018-09-10T09:15:50.581Z,95752.67
2018-09-10T09:18:55.082Z,95753.64
2018-09-10T09:21:59.566Z,95757.53
2018-09-10T09:25:04.341Z,95760.03
2018-09-10T09:28:09.020Z,95760.91
2018-09-10T09:31:13.724Z,95761.30
2018-09-10T09:34:19.328Z,95758.37
2018-09-10T09:37:29.525Z,95762.66
2018-09-10T09:40:39.084Z,95756.56
2018-09-10T09:43:48.794Z,95754.22
2018-09-10T09:46:53.348Z,95756.31
2018-09-10T09:49:57.856Z,95757.78
2018-09-10T09:53:02.380Z,95756.91
2018-09-10T09:56:07.263Z,95753.52
2018-09-10T09:59:11.740Z,95747.03
2018-09-10T10:02:25.249Z,95740.53
2018-09-10T10:05:29.895Z,95737.09
2018-09-10T10:08:35.098Z,95739.03
2018-09-10T10:11:40.278Z,95731.13
2018-09-10T10:14:45.507Z,95730.45
2018-09-10T10:17:50.102Z,95733.94
2018-09-10T10:20:54.611Z,95738.73
2018-09-10T10:23:59.409Z,95730.89
2018-09-10T10:27:05.819Z,95732.18
2018-09-10T10:30:10.353Z,95732.73
2018-09-10T10:33:14.769Z,95729.44
2018-09-10T10:36:19.229Z,95730.02
2018-09-10T10:39:24.517Z,95733.84
2018-09-10T10:42:29.949Z,95734.27
2018-09-10T10:45:35.992Z,95734.89
2018-09-10T10:48:42.241Z,95726.67
2018-09-10T10:51:47.469Z,95732.18
2018-09-10T10:54:52.835Z,95733.09
2018-09-10T10:57:57.297Z,95732.46
2018-09-10T11:01:01.822Z,95733.17
2018-09-10T11:04:07.411Z,95735.02
2018-09-10T11:07:13.435Z,95729.67
2018-09-10T11:10:18.439Z,95732.83
2018-09-10T11:13:23.798Z,95722.12
2018-09-10T11:16:28.439Z,95728.69
2018-09-10T11:19:33.051Z,95721.41
2018-09-10T11:22:38.118Z,95725.41
2018-09-10T11:25:42.578Z,95720.00
2018-09-10T11:28:47.613Z,95716.56
2018-09-10T11:31:52.171Z,95720.52
2018-09-10T11:34:57.350Z,95717.80
2018-09-10T11:38:01.957Z,95720.27
2018-09-10T11:41:06.701Z,95722.92
2018-09-10T11:44:11.486Z,95715.35
2018-09-10T11:47:16.058Z,95721.86
2018-09-10T11:50:20.866Z,95715.58
2018-09-10T11:53:25.638Z,95717.94
2018-09-10T11:56:32.029Z,95721.30
2018-09-10T11:59:37.289Z,95718.97
2018-09-10T12:02:43.062Z,95724.13
2018-09-10T12:05:47.729Z,95715.23
2018-09-10T12:08:52.751Z,95714.94
2018-09-10T12:11:57.642Z,95714.56
2018-09-10T12:15:02.158Z,95710.80
2018-09-10T12:18:06.825Z,95717.83
2018-09-10T12:21:11.497Z,95719.38
2018-09-10T12:24:15.968Z,95726.53
2018-09-10T12:27:21.715Z,95734.56
2018-09-10T12:30:26.233Z,95730.81
2018-09-10T12:33:31.278Z,95736.11
2018-09-10T12:36:36.680Z,95732.27
2018-09-10T12:39:42.048Z,95739.32
2018-09-10T12:42:46.602Z,95726.91
2018-09-10T12:45:53.712Z,95725.02
2018-09-10T12:48:58.397Z,95723.72
2018-09-10T12:52:03.710Z,95724.67
2018-09-10T12:55:08.415Z,95720.97
2018-09-10T12:58:13.172Z,95716.40
2018-09-10T13:01:20.406Z,95710.80
2018-09-10T13:04:26.718Z,95707.85
2018-09-10T13:07:32.452Z,95710.22
2018-09-10T13:10:37.333Z,95701.20
2018-09-10T13:13:43.370Z,95701.31
2018-09-10T13:16:47.991Z,95695.22
2018-09-10T13:19:52.732Z,95698.16
2018-09-10T13:22:58.653Z,95699.80
2018-09-10T13:26:03.411Z,95686.29
2018-09-10T13:29:08.775Z,95695.31
2018-09-10T13:32:14.207Z,95693.40
2018-09-10T13:35:18.906Z,95688.55
2018-09-10T13:38:24.820Z,95690.91
2018-09-10T13:41:30.336Z,95683.28
2018-09-10T13:44:37.392Z,95681.54
2018-09-10T13:47:42.737Z,95680.26
2018-09-10T13:50:47.838Z,95687.95
2018-09-10T13:53:53.165Z,95677.13
2018-09-10T13:56:57.880Z,95678.13
2018-09-10T14:00:02.939Z,95682.14
2018-09-10T14:03:08.063Z,95680.88
2018-09-10T14:06:13.248Z,95687.39
2018-09-10T14:09:18.111Z,95686.82
2018-09-10T14:12:22.716Z,95679.59
2018-09-10T14:15:28.441Z,95677.63
2018-09-10T14:18:34.692Z,95674.41
2018-09-10T14:21:39.534Z,95668.18
2018-09-10T14:24:45.218Z,95676.08
2018-09-10T14:27:51.063Z,95670.11
2018-09-10T14:30:56.691Z,95667.36
2018-09-10T14:34:02.106Z,95669.89
2018-09-10T14:37:06.843Z,95663.77
2018-09-10T14:40:12.273Z,95656.39
2018-09-10T14:43:17.836Z,95656.79
2018-09-10T14:46:41.178Z,95652.66
2018-09-10T14:49:45.772Z,95657.37
2018-09-10T14:52:52.248Z,95645.46
2018-09-10T14:55:56.688Z,95647.29
2018-09-10T14:59:01.642Z,95649.05
2018-09-10T15:02:06.179Z,95652.65
2018-09-10T15:05:10.649Z,95650.65
2018-09-10T15:08:15.606Z,95655.52
2018-09-10T15:11:20.369Z,95658.30
2018-09-10T15:14:24.926Z,95659.47
2018-09-10T15:17:29.407Z,95662.67
2018-09-10T15:20:34.319Z,95672.42
2018-09-10T15:23:39.241Z,95673.98
2018-09-10T15:26:44.507Z,95672.09
2018-09-10T15:29:50.768Z,95667.31
2018-09-10T15:32:56.243Z,95666.96
2018-09-10T15:36:02.704Z,95659.38
2018-09-10T15:39:09.064Z,95664.28
2018-09-10T15:42:13.885Z,95667.53
2018-09-10T15:45:19.625Z,95661.70
2018-09-10T15:48:24.375Z,95659.96
2018-09-10T15:51:29.216Z,95657.88
2018-09-10T15:54:34.249Z,95658.28
2018-09-10T15:57:38.613Z,95653.86
2018-09-10T16:00:43.359Z,95649.41
2018-09-10T16:03:48.979Z,95650.03
2018-09-10T16:06:54.202Z,95654.79
2018-09-10T16:09:59.935Z,95656.95
2018-09-10T16:13:04.564Z,95660.59
2018-09-10T16:16:10.577Z,95662.63
2018-09-10T16:19:15.972Z,95657.24
2018-09-10T16:22:21.485Z,95659.80
2018-09-10T16:25:27.288Z,95659.03
2018-09-10T16:28:32.324Z,95659.61
2018-09-10T16:31:37.122Z,95664.25
2018-09-10T16:34:41.570Z,95669.52
2018-09-10T16:37:46.215Z,95668.62
2018-09-10T16:40:52.171Z,95668.23
2018-09-10T16:43:56.801Z,95671.00
2018-09-10T16:47:01.267Z,95672.63
2018-09-10T16:50:05.810Z,95672.28
2018-09-10T16:53:10.754Z,95678.83
2018-09-10T16:56:15.628Z,95677.47
2018-09-10T16:59:20.309Z,95680.74
2018-09-10T17:02:24.737Z,95683.75
2018-09-10T17:05:29.222Z,95678.10
2018-09-10T17:08:33.811Z,95680.56
2018-09-10T17:11:38.597Z,95687.40
2018-09-10T17:14:43.190Z,95686.86
2018-09-10T17:17:47.932Z,95693.89
2018-09-10T17:20:52.521Z,95691.47
2018-09-10T17:23:56.984Z,95707.72
2018-09-10T17:27:01.653Z,95706.62
2018-09-10T17:30:07.381Z,95704.33
2018-09-10T17:33:12.953Z,95708.39
2018-09-10T17:36:18.356Z,95707.06
2018-09-10T17:39:23.703Z,95715.20
2018-09-10T17:42:28.621Z,95714.68
2018-09-10T17:45:33.712Z,95720.70
2018-09-10T17:48:38.778Z,95729.69
2018-09-10T17:51:44.008Z,95729.69
2018-09-10T17:54:48.576Z,95736.27
2018-09-10T17:57:52.937Z,95738.66
2018-09-10T18:00:58.558Z,95742.95
2018-09-10T18:04:03.660Z,95745.69
2018-09-10T18:07:09.130Z,95743.31
2018-09-10T18:10:13.674Z,95749.89
2018-09-10T18:13:18.183Z,95753.05
2018-09-10T18:16:22.791Z,95755.55
2018-09-10T18:19:27.437Z,95756.98
2018-09-10T18:22:32.183Z,95761.94
2018-09-10T18:25:38.171Z,95767.55
2018-09-10T18:28:42.789Z,95764.69
2018-09-10T18:31:48.258Z,95769.94
2018-09-10T18:34:53.675Z,95773.11
2018-09-10T18:37:59.147Z,95776.52
2018-09-10T18:41:04.176Z,95782.55
2018-09-10T18:44:09.145Z,95778.25
2018-09-10T18:47:15.127Z,95780.72
2018-09-10T18:50:19.606Z,95784.31
2018-09-10T18:53:24.683Z,95784.23
2018-09-10T18:56:29.267Z,95785.44
2018-09-10T18:59:35.686Z,95781.36
2018-09-10T19:02:40.184Z,95786.44
2018-09-10T19:05:44.953Z,95786.31
2018-09-10T19:08:50.759Z,95785.87
2018-09-10T19:11:55.747Z,95776.27
2018-09-10T19:15:01.052Z,95769.55
2018-09-10T19:18:05.707Z,95770.34
2018-09-10T19:21:10.948Z,95775.70
2018-09-10T19:24:15.510Z,95770.45
2018-09-10T19:27:20.126Z,95769.20
2018-09-10T19:30:24.636Z,95763.47
2018-09-10T19:33:29.124Z,95759.22
2018-09-10T19:36:33.847Z,95765.44
2018-09-10T19:39:38.296Z,95763.92
2018-09-10T19:42:43.039Z,95765.77
2018-09-10T19:45:47.761Z,95772.15
2018-09-10T19:48:52.318Z,95776.95
2018-09-10T19:51:56.852Z,95771.73
2018-09-10T19:55:06.824Z,95784.70
2018-09-10T19:58:11.314Z,95781.20
2018-09-10T20:01:16.081Z,95777.67
2018-09-10T20:04:20.620Z,95778.77
2018-09-10T20:07:25.335Z,95780.59
2018-09-10T20:10:29.955Z,95775.75
2018-09-10T20:13:34.537Z,95778.36
2018-09-10T20:16:39.963Z,95780.37
2018-09-10T20:19:47.144Z,95788.55
2018-09-10T20:22:51.779Z,95786.56
2018-09-10T20:25:57.070Z,95789.27
2018-09-10T20:29:01.817Z,95783.38
2018-09-10T20:32:06.687Z,95784.49
2018-09-10T20:35:11.134Z,95794.64
2018-09-10T20:38:15.800Z,95802.38
2018-09-10T20:41:20.276Z,95794.13
2018-09-10T20:44:24.958Z,95790.09
2018-09-10T20:47:29.774Z,95792.66
2018-09-10T20:50:34.607Z,95792.66
2018-09-10T20:53:39.271Z,95802.61
2018-09-10T20:56:44.233Z,95803.19
2018-09-10T20:59:48.766Z,95808.64
2018-09-10T21:02:53.288Z,95805.19
2018-09-10T21:05:57.980Z,95809.55
2018-09-10T21:09:02.422Z,95810.98
2018-09-10T21:12:07.148Z,95811.77
2018-09-10T21:15:11.581Z,95814.21
2018-09-10T21:18:16.080Z,95815.68
2018-09-10T21:21:20.588Z,95819.56
2018-09-10T21:24:24.969Z,95817.78
2018-09-10T21:27:30.174Z,95814.91
2018-09-10T21:30:34.622Z,95818.89
2018-09-10T21:33:40.158Z,95815.20
2018-09-10T21:36:44.641Z,95816.67
2018-09-10T21:39:49.095Z,95815.30
2018-09-10T21:42:53.604Z,95816.64
2018-09-10T21:45:58.141Z,95815.53
2018-09-10T21:49:02.830Z,95820.65
2018-09-10T21:52:07.391Z,95817.64
2018-09-10T21:55:11.912Z,95814.06
2018-09-10T21:58:16.281Z,95812.48
2018-09-10T22:01:20.744Z,95816.40
2018-09-10T22:04:25.204Z,95821.06
2018-09-10T22:07:29.945Z,95828.84
2018-09-10T22:10:34.417Z,95824.77
2018-09-10T22:13:40.099Z,95829.42
2018-09-10T22:16:46.325Z,95832.54
2018-09-10T22:19:50.756Z,95827.61
2018-09-10T22:22:55.420Z,95824.37
2018-09-10T22:25:59.827Z,95827.92
2018-09-10T22:29:05.809Z,95822.02
2018-09-10T22:32:10.965Z,95818.33
2018-09-10T22:35:15.583Z,95816.20
2018-09-10T22:38:19.980Z,95812.88
2018-09-10T22:41:24.380Z,95815.00
2018-09-10T22:44:29.474Z,95810.31
2018-09-10T22:47:33.853Z,95816.20
2018-09-10T22:50:38.217Z,95804.02
2018-09-10T22:53:42.738Z,95804.13
2018-09-10T22:56:47.325Z,95800.48
2018-09-10T22:59:51.751Z,95810.47
2018-09-10T23:02:56.137Z,95808.02
2018-09-10T23:06:00.702Z,95813.77
2018-09-10T23:09:07.361Z,95815.33
2018-09-10T23:12:11.826Z,95811.79
2018-09-10T23:15:16.343Z,95811.25
2018-09-10T23:18:21.616Z,95804.38
2018-09-10T23:21:26.318Z,95810.73
2018-09-10T23:24:31.476Z,95808.05
2018-09-10T23:27:36.610Z,95810.61
2018-09-10T23:30:41.985Z,95809.27
2018-09-10T23:33:46.870Z,95803.24
2018-09-10T23:36:51.258Z,95803.81
2018-09-10T23:39:55.639Z,95810.38
2018-09-10T23:43:00.352Z,95806.70
2018-09-10T23:46:04.851Z,95813.08
2018-09-10T23:49:09.663Z,95813.84
2018-09-10T23:52:14.021Z,95809.59
2018-09-10T23:55:18.763Z,95805.45
2018-09-10T23:58:23.126Z,95815.48
